Time;durP1;ratioP1;P1;durP2;ratioP2;P2;SDS_P1;SDS_P2;PMS_P1;PMS_P2;Temp;Humidity;BMP_temperature;BMP_pressure;BME280_temperature;BME280_humidity;BME280_pressure;Samples;Min_cycle;Max_cycle;Signal;HPM_P1;HPM_P2
2023/06/17 00:00:28;;;;;;;10.80;8.18;;;;;;;16.37;91.38;100814.38;4886987;29;20545;-79
2023/06/17 00:02:55;;;;;;;8.55;7.57;;;;;;;16.36;91.46;100820.56;4905359;29;20095;-86
2023/06/17 00:05:24;;;;;;;7.55;6.88;;;;;;;16.36;92.29;100815.28;4897688;29;20048;-84
2023/06/17 00:07:50;;;;;;;8.10;7.30;;;;;;;16.33;92.04;100810.06;4901734;29;20116;-79
2023/06/17 00:10:17;;;;;;;8.93;8.13;;;;;;;16.35;92.16;100812.69;4889464;29;20048;-80
2023/06/17 00:12:43;;;;;;;10.23;8.63;;;;;;;16.29;93.13;100811.09;4890259;29;20037;-81
2023/06/17 00:15:10;;;;;;;9.50;8.60;;;;;;;16.24;93.42;100799.78;4891345;29;20044;-80
2023/06/17 00:17:37;;;;;;;9.43;8.35;;;;;;;16.20;93.57;100798.16;4899256;29;20439;-83
2023/06/17 00:20:10;;;;;;;10.32;8.10;;;;;;;16.14;93.55;100798.34;4902610;29;20048;-78
2023/06/17 00:22:36;;;;;;;9.45;8.55;;;;;;;16.09;93.96;100810.81;4893738;29;20036;-80
2023/06/17 00:25:03;;;;;;;9.57;8.75;;;;;;;16.06;93.92;100800.34;4897074;29;20045;-83
2023/06/17 00:27:30;;;;;;;10.80;9.68;;;;;;;16.00;95.03;100806.69;4895105;29;20041;-78
2023/06/17 00:29:59;;;;;;;10.50;9.48;;;;;;;15.91;94.93;100799.88;4873506;29;20097;-79
2023/06/17 00:32:28;;;;;;;10.85;9.65;;;;;;;15.85;94.89;100800.06;4894335;29;20083;-78
2023/06/17 00:34:55;;;;;;;11.35;8.23;;;;;;;15.78;94.92;100795.84;4889511;29;20113;-88
2023/06/17 00:37:22;;;;;;;9.70;8.68;;;;;;;15.73;94.86;100800.38;4908359;29;20037;-80
2023/06/17 00:39:49;;;;;;;10.73;9.63;;;;;;;15.64;94.94;100799.72;4893805;29;20047;-82
2023/06/17 00:42:16;;;;;;;9.75;8.90;;;;;;;15.58;95.29;100791.09;4910445;29;20132;-79
2023/06/17 00:44:42;;;;;;;10.75;9.45;;;;;;;15.52;95.03;100789.50;4892399;29;20044;-81
2023/06/17 00:47:12;;;;;;;9.35;8.45;;;;;;;15.47;94.73;100780.84;4890729;29;20041;-81
2023/06/17 00:49:42;;;;;;;9.77;8.75;;;;;;;15.43;94.51;100787.13;4891870;29;20133;-79
2023/06/17 00:52:10;;;;;;;10.25;8.80;;;;;;;15.39;94.00;100787.19;4894402;29;20044;-78
2023/06/17 00:54:42;;;;;;;9.40;8.50;;;;;;;15.34;93.71;100789.13;4895836;29;20043;-82
2023/06/17 00:57:15;;;;;;;10.07;9.07;;;;;;;15.29;93.20;100776.94;4909062;29;20511;-85
2023/06/17 00:59:45;;;;;;;;;;;;;;;15.22;93.38;100782.38;4887444;29;20072;-82
2023/06/17 01:02:13;;;;;;;8.38;7.57;;;;;;;15.19;92.86;100784.25;4893003;29;20720;-83
2023/06/17 01:04:43;;;;;;;12.00;7.97;;;;;;;15.16;92.74;100781.66;4890116;29;20510;-82
2023/06/17 01:07:50;;;;;;;8.20;7.28;;;;;;;15.12;92.29;100783.53;4901435;29;20059;-83
2023/06/17 01:10:40;;;;;;;14.13;7.88;;;;;;;15.07;92.44;100785.44;4880056;29;20457;-80
2023/06/17 01:13:07;;;;;;;7.82;7.13;;;;;;;14.99;92.27;100790.88;4893534;29;20127;-82
2023/06/17 01:15:35;;;;;;;11.15;8.68;;;;;;;14.96;92.56;100782.19;4896629;29;20076;-79
2023/06/17 01:18:04;;;;;;;10.75;8.30;;;;;;;14.91;92.26;100779.66;4896217;29;20097;-79
2023/06/17 01:20:33;;;;;;;8.68;7.80;;;;;;;14.92;92.00;100770.00;4882590;29;20101;-79
2023/06/17 01:23:02;;;;;;;10.93;7.75;;;;;;;14.89;91.85;100784.13;4889489;29;20437;-79
2023/06/17 01:25:31;;;;;;;9.07;8.15;;;;;;;14.85;91.91;100777.19;4889052;29;20094;-80
2023/06/17 01:28:00;;;;;;;9.13;7.63;;;;;;;14.81;91.78;100776.41;4894602;29;20037;-78
2023/06/17 01:30:30;;;;;;;8.32;6.75;;;;;;;14.75;91.53;100771.25;4895326;29;20114;-81
2023/06/17 01:32:58;;;;;;;10.18;8.98;;;;;;;14.70;91.42;100779.28;4894633;29;20037;-86
2023/06/17 01:35:32;;;;;;;9.82;7.93;;;;;;;14.68;91.18;100774.97;4880914;29;20052;-78
2023/06/17 01:38:17;;;;;;;14.13;7.20;;;;;;;14.63;91.15;100774.19;4879592;29;20156;-79
2023/06/17 01:40:44;;;;;;;8.48;7.68;;;;;;;14.61;90.24;100779.47;4910489;29;20043;-81
2023/06/17 01:43:14;;;;;;;9.30;8.40;;;;;;;14.58;90.06;100773.41;4875236;29;20056;-78
2023/06/17 01:45:42;;;;;;;8.30;7.60;;;;;;;14.56;90.15;100773.44;4883577;29;20040;-79
2023/06/17 01:48:08;;;;;;;8.52;7.72;;;;;;;14.53;89.37;100771.72;4893874;29;20381;-84
2023/06/17 01:50:35;;;;;;;8.60;7.80;;;;;;;14.48;88.95;100770.97;4891023;29;20550;-82
2023/06/17 01:53:02;;;;;;;9.85;7.03;;;;;;;14.43;88.89;100770.25;4908977;29;20044;-84
2023/06/17 01:55:28;;;;;;;7.32;6.57;;;;;;;14.38;88.78;100772.13;4893771;29;20059;-79
2023/06/17 01:57:55;;;;;;;7.65;7.03;;;;;;;14.32;87.97;100769.63;4893599;29;20492;-82
2023/06/17 02:00:21;;;;;;;8.55;7.78;;;;;;;14.27;87.87;100760.94;4888717;29;20040;-81
2023/06/17 02:02:48;;;;;;;7.57;6.80;;;;;;;14.21;87.69;100768.09;4893892;29;20080;-86
2023/06/17 02:05:14;;;;;;;8.02;7.28;;;;;;;14.16;87.59;100777.00;4893891;29;20435;-82
2023/06/17 02:07:41;;;;;;;7.53;6.82;;;;;;;14.13;87.52;100762.13;4886334;29;20037;-79
2023/06/17 02:10:08;;;;;;;9.65;7.40;;;;;;;14.08;87.29;100769.25;4889901;29;20051;-84
2023/06/17 02:12:34;;;;;;;8.25;7.30;;;;;;;14.04;87.20;100762.31;4893299;29;20037;-82
2023/06/17 02:15:00;;;;;;;9.88;7.05;;;;;;;14.02;87.38;100767.63;4878592;29;20055;-78
2023/06/17 02:17:28;;;;;;;10.50;8.23;;;;;;;13.99;87.51;100757.16;4900942;29;20032;-84
2023/06/17 02:19:55;;;;;;;8.93;8.05;;;;;;;13.98;87.77;100760.69;4909322;29;20128;-78
2023/06/17 02:22:22;;;;;;;8.13;7.35;;;;;;;13.95;87.50;100766.03;4893012;29;20068;-82
2023/06/17 02:24:48;;;;;;;11.13;7.82;;;;;;;13.94;87.68;100773.97;4904512;29;20040;-81
2023/06/17 02:27:16;;;;;;;7.93;6.50;;;;;;;13.93;87.36;100773.06;4890056;29;20805;-80
2023/06/17 02:29:43;;;;;;;12.35;8.00;;;;;;;13.92;87.69;100770.47;4884428;29;20037;-83
2023/06/17 02:32:09;;;;;;;8.15;7.28;;;;;;;13.85;87.56;100775.88;4879511;29;20524;-85
2023/06/17 02:34:37;;;;;;;7.68;6.95;;;;;;;13.81;88.01;100774.19;4889100;29;20051;-81
2023/06/17 02:37:03;;;;;;;8.05;7.18;;;;;;;13.80;88.05;100768.97;4899579;29;20104;-81
2023/06/17 02:39:30;;;;;;;8.30;7.50;;;;;;;13.82;88.20;100778.56;4871563;29;20107;-79
2023/06/17 02:41:56;;;;;;;8.43;7.50;;;;;;;13.79;88.51;100770.72;4894862;29;20047;-82
2023/06/17 02:44:23;;;;;;;11.32;7.63;;;;;;;13.75;88.50;100762.94;4908791;29;20069;-80
2023/06/17 02:46:49;;;;;;;9.18;8.23;;;;;;;13.68;88.61;100759.56;4894262;29;20049;-80
2023/06/17 02:49:16;;;;;;;8.98;7.88;;;;;;;13.65;88.77;100760.50;4894033;29;20052;-84
2023/06/17 02:51:42;;;;;;;12.05;7.90;;;;;;;13.63;89.16;100757.00;4907179;29;20108;-79
2023/06/17 02:54:10;;;;;;;9.02;8.10;;;;;;;13.61;88.88;100757.94;4880159;29;20404;-79
2023/06/17 02:56:37;;;;;;;9.48;7.85;;;;;;;13.57;88.80;100763.28;4896087;29;20045;-78
2023/06/17 02:59:03;;;;;;;9.55;7.63;;;;;;;13.56;88.89;100758.91;4896291;29;20040;-78
2023/06/17 03:01:30;;;;;;;10.65;7.72;;;;;;;13.55;88.80;100762.44;4915033;29;20048;-83
2023/06/17 03:04:01;;;;;;;8.95;8.05;;;;;;;13.53;88.93;100766.88;4888388;29;20051;-82
2023/06/17 03:06:34;;;;;;;10.77;7.55;;;;;;;13.50;89.05;100766.91;4895837;29;20045;-78
2023/06/17 03:09:03;;;;;;;8.73;7.83;;;;;;;13.44;89.97;100759.16;4894810;29;20057;-78
2023/06/17 03:11:30;;;;;;;12.90;8.70;;;;;;;13.39;89.90;100763.63;4892623;29;20044;-79
2023/06/17 03:13:56;;;;;;;9.98;8.43;;;;;;;13.34;90.14;100766.31;4875959;29;20092;-81
2023/06/17 03:16:24;;;;;;;8.73;7.93;;;;;;;13.31;90.66;100771.63;4908540;29;20044;-80
2023/06/17 03:18:51;;;;;;;9.57;7.70;;;;;;;13.29;90.99;100768.16;4911327;29;20051;-79
2023/06/17 03:21:21;;;;;;;11.07;7.95;;;;;;;13.36;91.33;100775.06;4882426;29;20075;-84
2023/06/17 03:23:48;;;;;;;12.38;9.18;;;;;;;13.44;91.60;100774.06;4888069;29;20437;-91
2023/06/17 03:26:15;;;;;;;8.70;7.90;;;;;;;13.45;91.08;100770.53;4903402;29;20048;-93
2023/06/17 03:28:42;;;;;;;9.77;8.77;;;;;;;13.42;91.68;100766.19;4891489;29;20051;-83
2023/06/17 03:31:08;;;;;;;10.27;8.50;;;;;;;13.42;91.76;100760.94;4886431;29;20052;-79
2023/06/17 03:33:35;;;;;;;9.65;8.85;;;;;;;13.46;91.12;100764.38;4884866;29;20064;-80
2023/06/17 03:36:01;;;;;;;13.38;7.78;;;;;;;13.49;91.39;100762.56;4902198;29;20040;-85
2023/06/17 03:38:28;;;;;;;16.35;8.60;;;;;;;13.55;91.29;100757.16;4879373;29;20064;-78
2023/06/17 03:40:54;;;;;;;12.45;7.75;;;;;;;13.61;91.00;100764.09;4893369;29;20036;-79
2023/06/17 03:43:21;;;;;;;10.13;9.18;;;;;;;13.65;90.77;100764.88;4880538;29;20052;-79
2023/06/17 03:45:47;;;;;;;10.20;9.23;;;;;;;13.74;90.62;100769.97;4878618;29;20040;-80
2023/06/17 03:48:14;;;;;;;10.02;8.30;;;;;;;13.89;90.13;100768.78;4866013;29;20384;-85
2023/06/17 03:50:40;;;;;;;8.70;7.75;;;;;;;13.98;89.55;100773.84;4877892;29;20041;-79
2023/06/17 03:53:08;;;;;;;9.38;8.38;;;;;;;14.01;89.13;100765.00;4904705;29;20029;-78
2023/06/17 03:55:36;;;;;;;10.45;8.65;;;;;;;13.98;89.03;100771.22;4888095;29;20049;-77
2023/06/17 03:58:02;;;;;;;8.93;8.13;;;;;;;13.91;89.47;100769.63;4880100;29;20044;-78
2023/06/17 04:00:29;;;;;;;10.57;9.45;;;;;;;13.89;89.84;100760.88;4881512;29;20040;-79
2023/06/17 04:02:56;;;;;;;10.07;9.07;;;;;;;13.91;90.04;100769.63;4884983;29;20048;-82
2023/06/17 04:05:23;;;;;;;10.57;8.50;;;;;;;14.00;89.68;100769.44;4878527;29;20275;-79
2023/06/17 04:07:50;;;;;;;10.45;8.57;;;;;;;14.15;89.57;100768.22;4876100;29;20097;-79
2023/06/17 04:10:16;;;;;;;12.20;9.85;;;;;;;14.29;89.61;100769.66;4877883;29;20036;-79
2023/06/17 04:12:45;;;;;;;16.48;10.13;;;;;;;14.44;88.89;100765.84;4898477;29;20055;-87
2023/06/17 04:15:12;;;;;;;10.98;9.30;;;;;;;14.55;88.92;100762.03;4881951;29;20088;-79
2023/06/17 04:17:38;;;;;;;12.15;9.32;;;;;;;14.65;88.49;100765.38;4893190;29;20036;-79
2023/06/17 04:20:10;;;;;;;11.95;10.68;;;;;;;14.69;88.54;100759.13;4892432;29;20052;-88
2023/06/17 04:22:41;;;;;;;13.95;9.38;;;;;;;14.79;89.28;100761.53;4866018;29;20139;-79
2023/06/17 04:25:11;;;;;;;10.52;9.07;;;;;;;14.82;89.09;100766.72;4880805;29;20037;-82
2023/06/17 04:27:39;;;;;;;12.48;10.23;;;;;;;14.98;89.06;100760.16;4875421;29;20048;-81
2023/06/17 04:30:09;;;;;;;14.77;10.70;;;;;;;15.09;88.95;100765.13;4894862;29;20586;-85
2023/06/17 04:32:38;;;;;;;12.07;10.65;;;;;;;15.22;88.77;100758.63;4882228;29;20048;-79
2023/06/17 04:35:06;;;;;;;12.82;10.93;;;;;;;15.34;88.61;100767.13;4901280;29;20040;-79
2023/06/17 04:37:34;;;;;;;14.80;10.40;;;;;;;15.38;88.92;100760.84;4866291;29;20135;-79
2023/06/17 04:40:02;;;;;;;16.30;11.20;;;;;;;15.32;89.51;100764.53;4869511;29;20059;-80
2023/06/17 04:42:33;;;;;;;14.07;10.65;;;;;;;15.41;89.92;100759.91;4885512;29;20068;-85
2023/06/17 04:45:00;;;;;;;27.13;11.98;;;;;;;15.55;89.96;100753.38;4896523;29;20060;-78
2023/06/17 04:47:28;;;;;;;19.13;11.45;;;;;;;15.67;90.02;100759.19;4899382;29;20052;-79
2023/06/17 04:49:55;;;;;;;14.55;12.00;;;;;;;15.67;90.40;100761.81;4895618;29;20060;-80
2023/06/17 04:52:24;;;;;;;16.17;11.60;;;;;;;15.73;90.56;100760.81;4891182;29;20041;-82
2023/06/17 04:54:51;;;;;;;16.95;11.50;;;;;;;15.80;90.25;100765.84;4890190;29;20471;-79
2023/06/17 04:57:18;;;;;;;15.15;10.63;;;;;;;15.87;90.31;100753.38;4890337;29;20044;-81
2023/06/17 04:59:45;;;;;;;12.55;10.85;;;;;;;15.96;90.42;100762.81;4895424;29;20117;-78
2023/06/17 05:02:11;;;;;;;16.40;12.73;;;;;;;15.94;91.60;100767.25;4890366;29;20036;-79
2023/06/17 05:04:37;;;;;;;16.42;12.05;;;;;;;15.93;92.15;100768.16;4887230;29;20101;-79
2023/06/17 05:07:04;;;;;;;20.65;13.55;;;;;;;15.91;93.19;100762.94;4882561;29;20078;-80
2023/06/17 05:09:31;;;;;;;15.80;12.57;;;;;;;15.97;93.22;100767.16;4890584;29;20045;-78
2023/06/17 05:11:57;;;;;;;16.25;11.73;;;;;;;16.09;93.14;100763.28;4883681;29;20047;-82
2023/06/17 05:14:24;;;;;;;18.48;12.38;;;;;;;16.21;92.80;100762.91;4911837;29;20059;-79
2023/06/17 05:16:50;;;;;;;15.43;13.30;;;;;;;16.29;92.76;100757.41;4875719;29;20064;-78
2023/06/17 05:19:17;;;;;;;19.80;13.80;;;;;;;16.34;92.64;100755.47;4868002;29;20053;-79
2023/06/17 05:21:43;;;;;;;18.13;13.55;;;;;;;16.36;92.44;100751.00;4899295;29;20045;-78
2023/06/17 05:24:10;;;;;;;19.60;12.40;;;;;;;16.33;92.58;100748.47;4898633;29;20060;-77
2023/06/17 05:26:36;;;;;;;19.75;13.02;;;;;;;16.34;92.58;100750.19;4883363;29;20496;-78
2023/06/17 05:29:03;;;;;;;19.55;13.40;;;;;;;16.33;92.87;100748.47;4887488;29;20041;-81
2023/06/17 05:31:29;;;;;;;19.35;14.35;;;;;;;16.21;93.47;100755.84;4898955;29;20729;-78
2023/06/17 05:33:56;;;;;;;18.88;13.93;;;;;;;16.15;94.21;100761.34;4896134;29;20515;-84
2023/06/17 05:36:22;;;;;;;20.55;13.38;;;;;;;16.20;94.05;100769.09;4895391;29;20041;-85
2023/06/17 05:38:49;;;;;;;21.90;13.70;;;;;;;16.22;94.45;100769.94;4895029;29;20048;-79
2023/06/17 05:41:15;;;;;;;15.82;13.68;;;;;;;16.24;94.13;100765.47;4887267;29;20580;-79
2023/06/17 05:43:42;;;;;;;18.45;14.15;;;;;;;16.21;94.36;100773.47;4894856;29;20068;-83
2023/06/17 05:46:08;;;;;;;16.88;13.88;;;;;;;16.18;94.85;100768.31;4895593;29;20040;-85
2023/06/17 05:48:35;;;;;;;18.85;13.18;;;;;;;16.20;94.63;100774.38;4890074;29;20041;-83
2023/06/17 05:51:01;;;;;;;25.23;14.75;;;;;;;16.12;94.76;100769.34;4904887;29;20314;-78
2023/06/17 05:53:28;;;;;;;22.05;15.13;;;;;;;16.15;95.11;100771.91;4893700;29;20472;-77
2023/06/17 05:55:54;;;;;;;23.52;16.08;;;;;;;16.20;94.41;100771.75;4895546;29;20072;-81
2023/06/17 05:58:21;;;;;;;21.77;14.77;;;;;;;16.16;94.86;100770.97;4889890;29;20052;-80
2023/06/17 06:00:48;;;;;;;26.85;16.42;;;;;;;16.18;94.75;100774.44;4899238;29;20075;-78
2023/06/17 06:03:15;;;;;;;26.75;18.23;;;;;;;16.17;94.83;100785.06;4900638;29;20055;-80
2023/06/17 06:05:41;;;;;;;22.50;16.45;;;;;;;16.14;95.26;100783.38;4889786;29;20051;-84
2023/06/17 06:08:08;;;;;;;19.80;15.57;;;;;;;16.15;95.74;100798.31;4893330;29;20036;-80
2023/06/17 06:10:34;;;;;;;24.08;16.23;;;;;;;16.10;96.39;100794.06;4895779;29;20376;-81
2023/06/17 06:13:00;;;;;;;23.13;16.80;;;;;;;16.01;97.41;100788.16;4891627;29;20047;-78
2023/06/17 06:15:29;;;;;;;20.35;14.95;;;;;;;15.86;98.54;100797.38;4892914;29;20346;-77
2023/06/17 06:17:55;;;;;;;20.08;13.40;;;;;;;15.87;98.72;100795.63;4890497;29;20050;-81
2023/06/17 06:20:22;;;;;;;19.98;13.63;;;;;;;15.86;98.48;100793.88;4886418;29;20124;-81
2023/06/17 06:22:48;;;;;;;17.98;13.55;;;;;;;15.84;98.65;100798.34;4894232;29;20036;-78
2023/06/17 06:25:15;;;;;;;19.23;13.20;;;;;;;15.80;98.96;100796.66;4871039;29;20417;-81
2023/06/17 06:27:41;;;;;;;23.17;14.45;;;;;;;15.80;98.83;100799.28;4909782;29;20126;-82
2023/06/17 06:30:09;;;;;;;18.27;13.73;;;;;;;15.77;99.18;100796.75;4876805;29;20045;-86
2023/06/17 06:32:35;;;;;;;23.45;16.42;;;;;;;15.83;98.94;100802.75;4895253;29;20132;-80
2023/06/17 06:35:03;;;;;;;20.98;14.32;;;;;;;15.82;99.56;100801.00;4879150;29;20044;-78
2023/06/17 06:37:29;;;;;;;25.73;16.25;;;;;;;15.76;100.00;100809.09;4885699;29;20041;-78
2023/06/17 06:39:56;;;;;;;26.88;16.58;;;;;;;15.70;100.00;100807.47;4898314;29;20112;-79
2023/06/17 06:42:22;;;;;;;24.10;16.35;;;;;;;15.65;100.00;100813.78;4895638;29;20141;-84
2023/06/17 06:44:52;;;;;;;26.27;16.67;;;;;;;15.72;100.00;100815.34;4893948;29;20048;-79
2023/06/17 06:47:19;;;;;;;23.15;16.73;;;;;;;15.74;99.92;100823.25;4892203;29;20047;-83
2023/06/17 06:49:46;;;;;;;23.13;15.73;;;;;;;15.78;99.57;100823.09;4894389;29;20036;-79
2023/06/17 06:52:12;;;;;;;25.33;16.00;;;;;;;15.83;98.72;100823.88;4894012;29;20055;-85
2023/06/17 06:54:39;;;;;;;24.20;16.52;;;;;;;15.82;98.60;100822.13;4897522;29;20092;-82
2023/06/17 06:57:05;;;;;;;26.42;16.35;;;;;;;15.99;97.94;100820.78;4871598;29;20460;-84
2023/06/17 06:59:32;;;;;;;22.75;14.95;;;;;;;16.07;97.12;100828.50;4887916;29;20089;-81
2023/06/17 07:01:59;;;;;;;18.60;13.68;;;;;;;16.13;96.65;100820.41;4889075;29;20041;-80
2023/06/17 07:04:25;;;;;;;16.08;13.15;;;;;;;16.31;95.96;100821.59;4907835;29;20051;-78
2023/06/17 07:06:52;;;;;;;19.25;14.48;;;;;;;16.50;94.59;100827.19;4877970;29;20140;-81
2023/06/17 07:09:18;;;;;;;20.45;15.65;;;;;;;16.67;93.18;100822.28;4873647;29;20068;-84
2023/06/17 07:11:45;;;;;;;21.08;15.77;;;;;;;16.81;92.21;100823.59;4893258;29;20033;-78
2023/06/17 07:14:13;;;;;;;22.38;13.80;;;;;;;16.91;91.66;100819.78;4908057;29;20047;-85
2023/06/17 07:16:39;;;;;;;26.23;16.23;;;;;;;17.03;90.47;100822.00;4901208;29;20480;-83
2023/06/17 07:19:06;;;;;;;15.75;12.15;;;;;;;17.13;90.19;100822.56;4894532;29;20053;-81
2023/06/17 07:21:32;;;;;;;19.42;14.48;;;;;;;17.24;89.08;100824.00;4900605;29;20072;-80
2023/06/17 07:23:59;;;;;;;22.30;16.42;;;;;;;17.32;88.79;100825.44;4887009;29;20041;-79
2023/06/17 07:26:25;;;;;;;19.73;15.85;;;;;;;17.36;88.20;100826.19;4892328;29;20124;-78
2023/06/17 07:28:55;;;;;;;18.58;14.30;;;;;;;17.38;88.14;100827.03;4894061;29;20432;-80
2023/06/17 07:31:22;;;;;;;20.08;14.50;;;;;;;17.61;87.41;100828.88;4888997;29;20555;-78
2023/06/17 07:33:49;;;;;;;23.90;15.00;;;;;;;17.79;86.16;100821.19;4895534;29;20041;-80
2023/06/17 07:36:16;;;;;;;24.05;15.35;;;;;;;17.91;85.90;100830.44;4896604;29;20104;-83
2023/06/17 07:38:42;;;;;;;21.40;16.02;;;;;;;18.13;85.02;100828.78;4895679;29;20052;-79
2023/06/17 07:41:08;;;;;;;23.00;15.57;;;;;;;18.20;83.55;100824.09;4894024;29;20032;-82
2023/06/17 07:43:35;;;;;;;21.60;16.45;;;;;;;18.25;82.16;100827.44;4862458;29;20037;-83
2023/06/17 07:46:02;;;;;;;25.27;16.70;;;;;;;18.09;83.55;100831.59;4887621;29;20048;-79
2023/06/17 07:48:28;;;;;;;23.92;17.02;;;;;;;17.98;83.99;100832.84;4889510;29;20056;-80
2023/06/17 07:50:55;;;;;;;22.23;15.27;;;;;;;18.06;83.86;100835.22;4888859;29;20045;-79
2023/06/17 07:53:21;;;;;;;22.90;16.67;;;;;;;18.12;83.58;100834.13;4882699;29;20081;-79
2023/06/17 07:55:48;;;;;;;19.30;15.45;;;;;;;18.17;82.92;100843.63;4899979;29;20032;-80
2023/06/17 07:58:16;;;;;;;19.10;15.48;;;;;;;18.28;82.90;100832.63;4895396;29;20104;-88
2023/06/17 08:00:42;;;;;;;24.20;16.30;;;;;;;18.54;81.15;100836.06;4907650;29;20029;-82
2023/06/17 08:03:09;;;;;;;23.55;17.23;;;;;;;18.62;80.14;100836.59;4880635;29;20453;-79
2023/06/17 08:05:36;;;;;;;23.38;17.63;;;;;;;18.64;80.26;100832.13;4883559;29;20880;-80
2023/06/17 08:08:03;;;;;;;21.98;17.00;;;;;;;18.60;80.20;100827.84;4894687;29;20492;-82
2023/06/17 08:10:30;;;;;;;19.83;16.67;;;;;;;18.84;79.13;100823.34;4898762;29;20597;-86
2023/06/17 08:12:56;;;;;;;19.00;15.18;;;;;;;19.03;78.24;100833.22;4892247;29;20048;-79
2023/06/17 08:15:23;;;;;;;27.30;16.02;;;;;;;18.96;77.30;100831.75;4895679;29;20036;-81
2023/06/17 08:17:50;;;;;;;16.95;14.63;;;;;;;19.10;77.95;100826.75;4902447;29;20544;-78
2023/06/17 08:20:18;;;;;;;23.00;17.27;;;;;;;19.35;76.92;100828.38;4902886;29;20063;-83
2023/06/17 08:22:44;;;;;;;20.17;16.85;;;;;;;19.57;76.13;100825.63;4898460;29;20089;-82
2023/06/17 08:25:11;;;;;;;20.25;15.52;;;;;;;19.78;74.91;100829.13;4898235;29;20041;-83
2023/06/17 08:27:38;;;;;;;18.15;13.75;;;;;;;19.88;74.40;100821.66;4891941;29;20036;-83
2023/06/17 08:30:07;;;;;;;19.75;16.10;;;;;;;20.07;74.38;100824.31;4898398;29;20045;-82
2023/06/17 08:32:33;;;;;;;24.25;15.82;;;;;;;20.30;73.19;100828.56;4882860;29;20139;-80
2023/06/17 08:35:05;;;;;;;24.23;16.27;;;;;;;20.43;72.54;100820.03;4892913;29;20041;-81
2023/06/17 08:37:34;;;;;;;21.80;15.73;;;;;;;20.61;71.60;100823.56;4910011;29;20048;-79
2023/06/17 08:40:00;;;;;;;20.50;17.35;;;;;;;20.64;71.31;100826.97;4899885;29;20075;-85
2023/06/17 08:42:30;;;;;;;21.33;15.98;;;;;;;20.61;71.79;100828.91;4872345;29;20048;-79
2023/06/17 08:45:00;;;;;;;19.10;15.57;;;;;;;20.53;71.63;100821.28;4900298;29;20064;-78
2023/06/17 08:47:27;;;;;;;19.95;16.30;;;;;;;20.64;70.97;100818.97;4904014;29;20078;-80
2023/06/17 08:49:58;;;;;;;18.60;15.55;;;;;;;21.23;70.15;100831.22;4902137;29;20040;-79
2023/06/17 08:52:26;;;;;;;20.10;16.40;;;;;;;22.21;66.66;100832.34;4891771;29;20040;-83
2023/06/17 08:54:54;;;;;;;17.40;15.30;;;;;;;22.56;64.93;100827.72;4898924;29;20056;-81
2023/06/17 08:57:21;;;;;;;20.83;16.98;;;;;;;22.50;64.56;100825.41;4896420;29;20105;-87
2023/06/17 08:59:47;;;;;;;21.45;16.77;;;;;;;22.12;65.06;100828.34;4884386;29;20044;-81
2023/06/17 09:02:15;;;;;;;21.45;15.75;;;;;;;21.98;65.66;100827.31;4900283;29;20063;-81
2023/06/17 09:04:42;;;;;;;18.80;16.80;;;;;;;21.94;65.85;100838.22;4897034;29;20037;-82
2023/06/17 09:07:09;;;;;;;17.08;15.23;;;;;;;21.85;66.24;100838.69;4883536;29;20045;-80
2023/06/17 09:09:36;;;;;;;18.42;16.50;;;;;;;22.03;65.50;100837.75;4898054;29;20243;-83
2023/06/17 09:12:05;;;;;;;19.65;17.45;;;;;;;22.35;64.12;100839.56;4883642;29;20639;-83
2023/06/17 09:14:32;;;;;;;17.60;15.02;;;;;;;22.16;64.95;100837.06;4895178;29;20045;-82
2023/06/17 09:17:00;;;;;;;20.30;15.75;;;;;;;22.79;63.26;100834.41;4897805;29;20055;-79
2023/06/17 09:19:30;;;;;;;17.10;14.23;;;;;;;24.04;60.46;100826.16;4893149;29;20049;-83
2023/06/17 09:21:58;;;;;;;22.77;17.27;;;;;;;25.14;55.71;100828.91;4880708;29;20440;-82
2023/06/17 09:24:30;;;;;;;17.10;15.30;;;;;;;25.76;51.91;100830.91;4894986;29;20057;-81
2023/06/17 09:26:56;;;;;;;20.02;15.82;;;;;;;25.51;51.46;100829.94;4895488;29;20049;-79
2023/06/17 09:29:23;;;;;;;17.45;14.88;;;;;;;26.00;49.35;100822.97;4895007;29;20056;-79
2023/06/17 09:31:54;;;;;;;20.63;16.42;;;;;;;26.95;47.25;100824.19;4899670;29;20064;-83
2023/06/17 09:34:22;;;;;;;19.60;17.30;;;;;;;27.78;44.81;100816.97;4899080;29;20048;-81
2023/06/17 09:37:00;;;;;;;17.83;15.82;;;;;;;28.97;41.23;100821.69;4914525;29;20041;-82
2023/06/17 09:39:34;;;;;;;15.65;12.82;;;;;;;29.20;40.11;100818.84;4910555;29;20052;-84
2023/06/17 09:42:10;;;;;;;16.88;15.07;;;;;;;29.68;38.74;100815.63;4901192;29;20033;-81
2023/06/17 09:44:44;;;;;;;14.60;12.60;;;;;;;30.26;37.29;100819.59;4905317;29;20040;-80
2023/06/17 09:47:11;;;;;;;13.90;12.60;;;;;;;31.24;36.92;100822.41;4895362;29;20386;-81
2023/06/17 09:49:38;;;;;;;14.65;13.18;;;;;;;31.71;34.54;100820.72;4881289;29;20131;-79
2023/06/17 09:52:08;;;;;;;16.25;14.60;;;;;;;31.67;35.33;100820.19;4900151;29;20040;-80
2023/06/17 09:54:35;;;;;;;12.00;10.93;;;;;;;31.48;36.08;100819.19;4901094;29;20111;-80
2023/06/17 09:57:03;;;;;;;14.50;13.20;;;;;;;31.75;35.01;100814.03;4891341;29;20052;-85
2023/06/17 09:59:30;;;;;;;13.02;11.73;;;;;;;32.04;34.74;100822.00;4902103;29;20051;-82
2023/06/17 10:01:58;;;;;;;16.23;12.10;;;;;;;32.65;33.99;100811.53;4889643;29;20067;-80
2023/06/17 10:04:25;;;;;;;13.77;12.43;;;;;;;33.30;33.18;100807.75;4894801;29;20033;-84
2023/06/17 10:06:53;;;;;;;15.25;13.80;;;;;;;33.73;30.75;100803.22;4898532;29;20526;-81
2023/06/17 10:09:22;;;;;;;14.35;13.07;;;;;;;32.62;32.66;100809.13;4921562;29;20044;-80
2023/06/17 10:11:53;;;;;;;14.70;13.18;;;;;;;32.38;32.34;100821.41;4898931;29;20043;-78
2023/06/17 10:14:34;;;;;;;13.05;11.75;;;;;;;32.68;32.35;100818.50;4893728;29;20051;-80
2023/06/17 10:17:03;;;;;;;15.20;12.35;;;;;;;32.68;33.36;100815.81;4887704;29;20116;-81
2023/06/17 10:19:35;;;;;;;13.98;12.38;;;;;;;33.24;31.46;100813.75;4896739;29;20052;-80
2023/06/17 10:22:06;;;;;;;13.27;11.95;;;;;;;33.80;31.36;100815.16;4884427;29;20043;-82
2023/06/17 10:24:33;;;;;;;14.95;13.60;;;;;;;33.18;31.01;100815.25;4886264;29;20233;-80
2023/06/17 10:27:04;;;;;;;13.82;12.48;;;;;;;33.64;30.66;100810.47;4896701;29;20040;-81
2023/06/17 10:29:34;;;;;;;13.13;11.75;;;;;;;33.64;31.31;100807.75;4893040;29;20041;-83
2023/06/17 10:32:19;;;;;;;14.85;13.38;;;;;;;33.76;30.21;100812.91;4879551;29;20032;-81
2023/06/17 10:35:08;;;;;;;14.05;12.80;;;;;;;34.10;29.15;100802.03;4895043;29;20128;-81
2023/06/17 10:37:47;;;;;;;14.48;12.18;;;;;;;33.22;31.12;100802.19;4889373;29;20045;-81
2023/06/17 10:40:31;;;;;;;12.27;11.05;;;;;;;33.58;30.51;100800.25;4879183;29;20067;-79
2023/06/17 10:43:03;;;;;;;11.73;10.60;;;;;;;34.03;29.75;100797.44;4890211;29;20036;-81
2023/06/17 10:45:32;;;;;;;14.38;11.40;;;;;;;34.76;29.56;100801.38;4896099;29;20531;-84
2023/06/17 10:48:28;;;;;;;12.75;11.65;;;;;;;35.35;27.76;100803.09;4894592;29;20075;-84
2023/06/17 10:51:01;;;;;;;13.35;11.55;;;;;;;35.72;27.73;100796.16;4890467;29;20049;-83
2023/06/17 10:53:32;;;;;;;9.90;9.00;;;;;;;36.04;27.95;100797.94;4890464;29;20143;-80
2023/06/17 10:56:01;;;;;;;11.40;10.40;;;;;;;36.55;27.42;100796.66;4898283;29;20511;-83
2023/06/17 10:58:45;;;;;;;12.85;10.77;;;;;;;36.83;26.11;100787.94;4878133;29;20048;-80
2023/06/17 11:01:12;;;;;;;11.80;10.27;;;;;;;37.35;25.88;100786.25;4883919;29;20147;-80
2023/06/17 11:03:39;;;;;;;12.95;11.95;;;;;;;36.85;27.14;100777.69;4872630;29;20140;-89
2023/06/17 11:06:08;;;;;;;11.85;10.48;;;;;;;37.34;26.13;100770.91;4893360;29;20068;-89
2023/06/17 11:08:38;;;;;;;11.32;10.32;;;;;;;37.31;25.95;100774.00;4894007;29;20093;-88
2023/06/17 11:11:16;;;;;;;10.13;9.40;;;;;;;37.77;24.68;100773.84;4893167;29;20044;-80
2023/06/17 11:13:47;;;;;;;11.55;10.43;;;;;;;37.53;24.75;100767.63;4906742;29;20032;-80
2023/06/17 11:16:14;;;;;;;12.85;11.65;;;;;;;36.67;26.15;100775.25;4887203;29;20040;-82
2023/06/17 11:18:44;;;;;;;10.65;9.68;;;;;;;37.60;25.03;100769.59;4890126;29;20039;-79